createdAt,value
2022-09-20T00:00:42.479Z,5.30
2022-09-20T00:03:10.047Z,3.27
2022-09-20T00:05:39.737Z,3.63
2022-09-20T00:08:08.920Z,2.30
2022-09-20T00:10:39.346Z,1.67
2022-09-20T00:13:07.723Z,2.13
2022-09-20T00:15:35.590Z,3.20
2022-09-20T00:18:03.065Z,1.10
2022-09-20T00:20:30.448Z,1.23
2022-09-20T00:22:59.236Z,1.73
2022-09-20T00:25:26.714Z,2.63
2022-09-20T00:27:54.200Z,3.17
2022-09-20T00:30:22.072Z,1.57
2022-09-20T00:32:49.454Z,3.20
2022-09-20T00:35:16.297Z,1.03
2022-09-20T00:37:44.367Z,5.20
2022-09-20T00:40:13.873Z,2.43
2022-09-20T00:42:41.807Z,2.13
2022-09-20T00:45:11.630Z,1.63
2022-09-20T00:47:40.276Z,2.77
2022-09-20T00:50:13.601Z,6.07
2022-09-20T00:52:43.815Z,2.17
2022-09-20T00:55:11.546Z,1.23
2022-09-20T00:57:40.888Z,2.87
2022-09-20T01:00:10.467Z,1.93
2022-09-20T01:02:40.562Z,2.83
2022-09-20T01:05:08.768Z,3.00
2022-09-20T01:07:36.563Z,4.63
2022-09-20T01:10:04.162Z,2.13
2022-09-20T01:12:34.578Z,4.03
2022-09-20T01:15:03.932Z,2.63
2022-09-20T01:17:33.818Z,2.50
2022-09-20T01:20:08.971Z,3.10
2022-09-20T01:22:42.613Z,1.27
2022-09-20T01:25:12.761Z,2.10
2022-09-20T01:27:43.044Z,3.23
2022-09-20T01:30:13.010Z,2.93
2022-09-20T01:32:45.305Z,1.90
2022-09-20T01:35:13.266Z,3.43
2022-09-20T01:37:47.919Z,2.43
2022-09-20T01:40:20.026Z,1.73
2022-09-20T01:42:54.900Z,2.77
2022-09-20T01:45:26.329Z,2.37
2022-09-20T01:47:59.168Z,2.50
2022-09-20T01:50:30.954Z,3.80
2022-09-20T01:53:14.287Z,2.93
2022-09-20T01:55:54.320Z,3.53
2022-09-20T01:58:34.962Z,3.27
2022-09-20T02:01:12.350Z,2.93
2022-09-20T02:03:54.822Z,4.07
2022-09-20T02:06:32.956Z,2.90
2022-09-20T02:09:18.046Z,1.57
2022-09-20T02:11:53.239Z,3.60
2022-09-20T02:14:30.862Z,3.77
2022-09-20T02:16:58.765Z,2.00
2022-09-20T02:19:42.376Z,1.90
2022-09-20T02:22:12.090Z,4.23
2022-09-20T02:24:42.228Z,4.33
2022-09-20T02:27:14.839Z,2.50
2022-09-20T02:29:47.584Z,2.93
2022-09-20T02:32:24.822Z,3.80
2022-09-20T02:35:06.727Z,2.30
2022-09-20T02:37:43.774Z,1.67
2022-09-20T02:40:20.783Z,2.77
2022-09-20T02:42:51.500Z,3.67
2022-09-20T02:45:23.836Z,2.33
2022-09-20T02:47:52.308Z,3.30
2022-09-20T02:50:23.785Z,2.67
2022-09-20T02:52:58.419Z,4.90
2022-09-20T02:55:28.849Z,7.17
2022-09-20T02:58:03.259Z,4.17
2022-09-20T03:00:38.350Z,3.10
2022-09-20T03:03:09.635Z,2.17
2022-09-20T03:05:44.584Z,4.13
2022-09-20T03:08:16.722Z,5.63
2022-09-20T03:10:47.447Z,2.10
2022-09-20T03:13:19.853Z,3.50
2022-09-20T03:15:54.883Z,2.87
2022-09-20T03:18:30.374Z,2.97
2022-09-20T03:21:02.615Z,3.53
2022-09-20T03:23:39.050Z,3.27
2022-09-20T03:26:13.802Z,4.03
2022-09-20T03:28:51.235Z,2.70
2022-09-20T03:31:25.556Z,2.20
2022-09-20T03:33:59.387Z,6.13
2022-09-20T03:36:36.892Z,3.13
2022-09-20T03:39:19.147Z,4.30
2022-09-20T03:42:04.321Z,4.13
2022-09-20T03:44:50.005Z,7.03
2022-09-20T03:47:26.882Z,4.07
2022-09-20T03:50:03.092Z,4.67
2022-09-20T03:52:40.561Z,4.07
2022-09-20T03:55:26.425Z,1.57
2022-09-20T03:58:06.877Z,3.83
2022-09-20T04:00:44.473Z,6.07
2022-09-20T04:03:27.874Z,3.03
2022-09-20T04:06:03.425Z,3.83
2022-09-20T04:08:40.134Z,4.13
2022-09-20T04:11:11.555Z,3.30
2022-09-20T04:13:40.288Z,3.80
2022-09-20T04:16:16.127Z,2.43
2022-09-20T04:18:49.315Z,8.70
2022-09-20T04:21:23.670Z,2.93
2022-09-20T04:23:55.825Z,3.53
2022-09-20T04:26:25.584Z,1.87
2022-09-20T04:28:54.523Z,4.03
2022-09-20T04:31:28.821Z,6.00
2022-09-20T04:33:58.402Z,5.93
2022-09-20T04:36:35.782Z,5.60
2022-09-20T04:39:12.861Z,2.60
2022-09-20T04:42:03.485Z,3.83
2022-09-20T04:44:45.782Z,5.17
2022-09-20T04:47:29.828Z,2.10
2022-09-20T04:50:24.034Z,4.77
2022-09-20T04:53:17.699Z,3.47
2022-09-20T04:55:53.235Z,4.20
2022-09-20T04:58:34.266Z,5.40
2022-09-20T05:01:32.707Z,4.47
2022-09-20T05:04:14.234Z,3.07
2022-09-20T05:06:52.875Z,6.73
2022-09-20T05:09:35.190Z,6.03
2022-09-20T05:12:13.973Z,7.33
2022-09-20T05:14:52.753Z,3.13
2022-09-20T05:17:26.434Z,2.93
2022-09-20T05:20:03.228Z,3.20
2022-09-20T05:22:45.051Z,4.37
2022-09-20T05:25:27.336Z,7.07
2022-09-20T05:27:58.511Z,4.70
2022-09-20T05:30:33.424Z,9.43
2022-09-20T05:33:06.202Z,6.23
2022-09-20T05:35:35.968Z,6.53
2022-09-20T05:38:06.662Z,9.80
2022-09-20T05:40:36.596Z,6.00
2022-09-20T05:43:11.191Z,7.37
2022-09-20T05:45:48.780Z,7.70
2022-09-20T05:48:19.656Z,7.10
2022-09-20T05:50:55.274Z,6.37
2022-09-20T05:53:40.621Z,6.47
2022-09-20T05:56:13.710Z,4.53
2022-09-20T05:58:48.619Z,5.03
2022-09-20T06:01:20.329Z,3.60
2022-09-20T06:03:54.304Z,5.73
2022-09-20T06:06:27.075Z,6.23
2022-09-20T06:09:07.376Z,7.43
2022-09-20T06:11:46.243Z,8.87
2022-09-20T06:14:18.732Z,3.73
2022-09-20T06:16:50.067Z,2.93
2022-09-20T06:19:22.495Z,5.73
2022-09-20T06:21:52.421Z,6.30
2022-09-20T06:24:25.693Z,7.67
2022-09-20T06:26:54.518Z,6.87
2022-09-20T06:29:26.243Z,8.37
2022-09-20T06:31:54.111Z,6.93
2022-09-20T06:34:22.479Z,4.63
2022-09-20T06:37:09.196Z,6.50
2022-09-20T06:39:59.513Z,7.80
2022-09-20T06:42:27.509Z,6.63
2022-09-20T06:44:56.821Z,5.83
2022-09-20T06:47:26.108Z,5.93
2022-09-20T06:49:53.644Z,4.83
2022-09-20T06:52:22.422Z,6.00
2022-09-20T06:54:51.831Z,6.77
2022-09-20T06:57:20.890Z,8.70
2022-09-20T06:59:48.312Z,7.10
2022-09-20T07:02:17.119Z,4.97
2022-09-20T07:04:45.086Z,5.73
2022-09-20T07:07:16.329Z,6.60
2022-09-20T07:09:43.780Z,4.00
2022-09-20T07:12:12.395Z,5.10
2022-09-20T07:14:39.931Z,6.03
2022-09-20T07:17:07.509Z,10.73
2022-09-20T07:19:36.695Z,4.37
2022-09-20T07:22:04.196Z,5.13
2022-09-20T07:24:32.168Z,7.03
2022-09-20T07:27:00.759Z,6.73
2022-09-20T07:29:28.518Z,6.47
2022-09-20T07:31:56.623Z,5.50
2022-09-20T07:34:24.178Z,12.20
2022-09-20T07:36:52.939Z,7.20
2022-09-20T07:39:20.329Z,6.90
2022-09-20T07:41:51.187Z,4.27
2022-09-20T07:44:22.139Z,8.60
2022-09-20T07:46:49.716Z,7.90
2022-09-20T07:49:17.199Z,7.13
2022-09-20T07:51:44.696Z,11.00
2022-09-20T07:54:13.642Z,6.10
2022-09-20T07:56:41.168Z,6.50
2022-09-20T07:59:10.082Z,5.03
2022-09-20T08:01:37.710Z,4.30
2022-09-20T08:04:05.508Z,4.23
2022-09-20T08:06:33.275Z,10.90
2022-09-20T08:09:00.803Z,7.17
2022-09-20T08:11:30.722Z,6.43
2022-09-20T08:14:08.274Z,6.30
2022-09-20T08:16:38.811Z,4.50
2022-09-20T08:19:06.335Z,3.00
2022-09-20T08:21:35.565Z,3.70
2022-09-20T08:24:03.927Z,6.77
2022-09-20T08:26:35.076Z,3.73
2022-09-20T08:29:02.557Z,5.43
2022-09-20T08:31:34.449Z,4.93
2022-09-20T08:34:03.625Z,5.13
2022-09-20T08:36:36.066Z,5.50
2022-09-20T08:41:55.624Z,4.07
2022-09-20T08:44:25.815Z,3.73
2022-09-20T08:46:57.147Z,2.63
2022-09-20T08:49:27.178Z,7.13
2022-09-20T08:51:57.480Z,5.60
2022-09-20T08:54:25.390Z,5.87
2022-09-20T08:56:54.902Z,2.30
2022-09-20T08:59:23.409Z,4.70
2022-09-20T09:01:51.497Z,4.30
2022-09-20T09:04:20.064Z,3.43
2022-09-20T09:06:47.766Z,4.03
2022-09-20T09:09:18.498Z,8.07
2022-09-20T09:11:46.221Z,2.57
2022-09-20T09:14:43.664Z,6.03
2022-09-20T09:17:12.065Z,3.07
2022-09-20T09:19:47.548Z,5.13
2022-09-20T09:22:19.518Z,6.23
2022-09-20T09:24:47.103Z,3.33
2022-09-20T09:27:16.327Z,3.57
2022-09-20T09:29:51.915Z,4.27
2022-09-20T09:32:24.234Z,2.35
2022-09-20T09:34:51.953Z,3.35
2022-09-20T09:37:28.835Z,3.65
2022-09-20T09:40:16.419Z,3.03
2022-09-20T09:42:51.588Z,2.20
2022-09-20T09:45:28.148Z,0.93
2022-09-20T09:47:56.074Z,2.57
2022-09-20T09:50:25.274Z,2.70
2022-09-20T09:53:02.856Z,4.33
2022-09-20T09:55:36.380Z,1.50
2022-09-20T09:58:08.579Z,1.67
2022-09-20T10:00:43.036Z,4.23
2022-09-20T10:03:18.696Z,3.23
2022-09-20T10:05:52.944Z,1.20
2022-09-20T10:08:24.854Z,3.17
2022-09-20T10:11:03.410Z,2.27
2022-09-20T10:13:36.057Z,2.73
2022-09-20T10:16:13.787Z,3.20
2022-09-20T10:18:44.515Z,2.87
2022-09-20T10:21:19.503Z,1.27
2022-09-20T10:24:08.820Z,2.90
2022-09-20T10:26:45.059Z,1.77
2022-09-20T10:29:17.052Z,0.70
2022-09-20T10:31:54.924Z,0.80
2022-09-20T10:34:35.822Z,1.10
2022-09-20T10:37:03.300Z,0.90
2022-09-20T10:39:32.796Z,0.77
2022-09-20T10:42:21.512Z,1.20
2022-09-20T10:44:56.411Z,1.70
2022-09-20T10:47:28.801Z,1.33
2022-09-20T10:50:00.554Z,2.13
2022-09-20T10:52:33.064Z,4.43
2022-09-20T10:55:20.363Z,2.37
2022-09-20T10:57:58.512Z,2.57
2022-09-20T11:00:26.810Z,6.27
2022-09-20T11:03:03.908Z,4.90
2022-09-20T11:05:35.797Z,4.17
2022-09-20T11:08:07.102Z,1.90
2022-09-20T11:10:37.057Z,3.43
2022-09-20T11:13:07.602Z,2.93
2022-09-20T11:15:37.967Z,3.10
2022-09-20T11:18:10.840Z,1.90
2022-09-20T11:20:44.109Z,1.63
2022-09-20T11:23:13.104Z,1.17
2022-09-20T11:25:44.291Z,1.53
2022-09-20T11:28:14.453Z,2.80
2022-09-20T11:30:44.433Z,3.23
2022-09-20T11:33:18.672Z,4.13
2022-09-20T11:35:47.547Z,3.43
2022-09-20T11:38:18.771Z,2.43
2022-09-20T11:40:49.302Z,1.17
2022-09-20T11:43:18.324Z,2.00
2022-09-20T11:45:48.205Z,2.40
2022-09-20T11:48:19.539Z,3.50
2022-09-20T11:50:51.779Z,3.07
2022-09-20T11:53:24.900Z,2.47
2022-09-20T11:55:53.697Z,2.30
2022-09-20T11:58:22.346Z,2.17
2022-09-20T12:00:51.802Z,2.30
2022-09-20T12:03:26.947Z,0.93
2022-09-20T12:05:58.812Z,2.20
2022-09-20T12:08:27.299Z,2.27
2022-09-20T12:10:56.748Z,3.63
2022-09-20T12:13:26.072Z,2.30
2022-09-20T12:15:58.878Z,4.13
2022-09-20T12:18:33.156Z,0.87
2022-09-20T12:21:01.932Z,3.10
2022-09-20T12:23:47.853Z,1.80
2022-09-20T12:26:30.401Z,2.10
2022-09-20T12:28:58.681Z,1.10
2022-09-20T12:31:38.881Z,3.80
2022-09-20T12:34:29.753Z,1.33
2022-09-20T12:37:12.152Z,1.00
2022-09-20T12:39:40.658Z,2.00
2022-09-20T12:42:24.430Z,1.80
2022-09-20T12:44:57.865Z,1.73
2022-09-20T12:47:26.156Z,1.73
2022-09-20T12:50:13.174Z,1.57
2022-09-20T12:52:57.516Z,3.57
2022-09-20T12:55:30.819Z,0.80
2022-09-20T12:58:01.950Z,2.10
2022-09-20T13:00:34.059Z,3.43
2022-09-20T13:03:02.423Z,3.00
2022-09-20T13:05:38.142Z,1.60
2022-09-20T13:08:15.654Z,1.43
2022-09-20T13:10:45.689Z,1.73
2022-09-20T13:13:20.650Z,0.60
2022-09-20T13:15:50.289Z,0.70
2022-09-20T13:18:19.385Z,1.77
2022-09-20T13:20:48.240Z,0.93
2022-09-20T13:23:20.268Z,0.83
2022-09-20T13:25:48.559Z,1.47
2022-09-20T13:28:28.743Z,1.23
2022-09-20T13:31:14.677Z,0.60
2022-09-20T13:33:42.247Z,1.17
2022-09-20T13:36:11.101Z,8.83
2022-09-20T13:38:38.838Z,2.47
2022-09-20T13:41:09.055Z,0.60
2022-09-20T13:43:38.288Z,2.67
2022-09-20T13:46:09.043Z,1.43
2022-09-20T13:48:36.501Z,1.73
2022-09-20T13:51:04.366Z,1.77
2022-09-20T13:53:41.765Z,1.67
2022-09-20T13:56:11.184Z,0.50
2022-09-20T13:58:38.927Z,1.93
2022-09-20T14:01:09.676Z,1.90
2022-09-20T14:03:37.363Z,4.10
2022-09-20T14:06:07.742Z,1.30
2022-09-20T14:08:39.174Z,0.70
2022-09-20T14:11:07.972Z,3.43
2022-09-20T14:13:38.733Z,0.80
2022-09-20T14:16:06.948Z,1.90
2022-09-20T14:18:35.296Z,1.23
2022-09-20T14:21:03.034Z,0.87
2022-09-20T14:23:31.528Z,0.70
2022-09-20T14:26:21.907Z,1.97
2022-09-20T14:28:49.344Z,2.10
2022-09-20T14:31:18.960Z,2.10
2022-09-20T14:33:51.771Z,2.30
2022-09-20T14:36:23.008Z,1.60
2022-09-20T14:38:51.821Z,1.90
2022-09-20T14:41:28.782Z,0.50
2022-09-20T14:43:57.459Z,1.90
2022-09-20T14:46:30.635Z,3.40
2022-09-20T14:49:12.936Z,2.93
2022-09-20T14:51:40.516Z,1.40
2022-09-20T14:54:24.460Z,1.73
2022-09-20T14:56:53.961Z,1.17
2022-09-20T14:59:22.753Z,0.73
2022-09-20T15:01:58.362Z,1.57
2022-09-20T15:04:27.278Z,2.27
2022-09-20T15:06:55.130Z,1.87
2022-09-20T15:09:22.755Z,1.63
2022-09-20T15:12:01.297Z,1.60
2022-09-20T15:14:28.739Z,0.47
2022-09-20T15:16:56.284Z,1.10
2022-09-20T15:19:23.702Z,0.70
2022-09-20T15:21:51.116Z,1.43
2022-09-20T15:24:18.848Z,1.47
2022-09-20T15:26:46.503Z,0.30
2022-09-20T15:29:17.533Z,1.13
2022-09-20T15:31:45.583Z,0.47
2022-09-20T15:34:14.199Z,1.00
2022-09-20T15:36:42.002Z,0.70
2022-09-20T15:39:09.440Z,0.67
2022-09-20T15:41:36.897Z,1.27
2022-09-20T15:44:04.365Z,0.50
2022-09-20T15:46:33.185Z,2.47
2022-09-20T15:49:02.628Z,1.57
2022-09-20T15:51:30.710Z,1.60
2022-09-20T15:53:59.118Z,2.97
2022-09-20T15:56:27.894Z,0.63
2022-09-20T15:58:58.942Z,0.50
2022-09-20T16:01:28.123Z,1.53
2022-09-20T16:03:57.132Z,0.60
2022-09-20T16:06:24.783Z,1.50
2022-09-20T16:08:52.616Z,1.10
2022-09-20T16:11:23.156Z,1.27
2022-09-20T16:13:53.632Z,0.70
2022-09-20T16:16:21.167Z,1.37
2022-09-20T16:19:05.986Z,1.43
2022-09-20T16:21:35.405Z,1.00
2022-09-20T16:24:02.937Z,1.27
2022-09-20T16:26:31.278Z,1.20
2022-09-20T16:28:58.948Z,0.50
2022-09-20T16:31:30.359Z,0.30
2022-09-20T16:33:58.392Z,0.27
2022-09-20T16:36:27.570Z,0.93
2022-09-20T16:38:57.175Z,0.37
2022-09-20T16:41:25.736Z,2.00
2022-09-20T16:43:53.746Z,0.60
2022-09-20T16:46:22.024Z,1.80
2022-09-20T16:48:54.203Z,0.53
2022-09-20T16:51:24.594Z,1.47
2022-09-20T16:53:53.407Z,0.70
2022-09-20T16:56:23.192Z,0.33
2022-09-20T16:58:51.254Z,0.60
2022-09-20T17:01:19.037Z,0.97
2022-09-20T17:03:47.111Z,0.40
2022-09-20T17:06:15.596Z,0.40
2022-09-20T17:08:44.639Z,0.37
2022-09-20T17:11:13.359Z,0.40
2022-09-20T17:13:42.975Z,0.40
2022-09-20T17:16:11.352Z,0.80
2022-09-20T17:18:41.858Z,0.87
2022-09-20T17:21:10.309Z,0.30
2022-09-20T17:23:37.812Z,0.53
2022-09-20T17:26:06.873Z,1.07
2022-09-20T17:28:37.808Z,1.30
2022-09-20T17:31:07.503Z,0.97
2022-09-20T17:33:36.039Z,0.70
2022-09-20T17:36:04.120Z,1.33
2022-09-20T17:38:33.180Z,1.27
2022-09-20T17:41:01.664Z,2.00
2022-09-20T17:43:31.047Z,1.67
2022-09-20T17:46:07.105Z,0.73
2022-09-20T17:48:35.329Z,1.07
2022-09-20T17:51:03.473Z,1.50
2022-09-20T17:53:31.461Z,0.70
2022-09-20T17:55:59.379Z,1.63
2022-09-20T17:58:26.849Z,1.10
2022-09-20T18:00:56.500Z,1.00
2022-09-20T18:03:25.811Z,1.67
2022-09-20T18:05:54.035Z,2.33
2022-09-20T18:08:21.445Z,1.90
2022-09-20T18:10:55.892Z,1.50
2022-09-20T18:13:23.373Z,3.80
2022-09-20T18:15:51.056Z,2.50
2022-09-20T18:18:18.718Z,2.00
2022-09-20T18:20:47.494Z,1.43
2022-09-20T18:23:15.104Z,1.63
2022-09-20T18:25:59.834Z,2.80
2022-09-20T18:28:27.225Z,1.93
2022-09-20T18:31:04.408Z,1.60
2022-09-20T18:33:32.346Z,2.13
2022-09-20T18:36:01.926Z,3.93
2022-09-20T18:38:29.514Z,2.33
2022-09-20T18:41:00.200Z,3.27
2022-09-20T18:43:29.947Z,1.40
2022-09-20T18:45:57.659Z,2.97
2022-09-20T18:48:25.703Z,1.40
2022-09-20T18:50:56.979Z,1.80
2022-09-20T18:53:26.805Z,2.73
2022-09-20T18:55:54.846Z,1.90
2022-09-20T18:58:22.691Z,2.17
2022-09-20T19:00:56.788Z,3.20
2022-09-20T19:03:27.670Z,2.73
2022-09-20T19:05:56.673Z,2.40
2022-09-20T19:08:27.003Z,2.27
2022-09-20T19:10:58.858Z,2.60
2022-09-20T19:13:35.688Z,1.63
2022-09-20T19:16:12.750Z,3.10
2022-09-20T19:18:52.326Z,2.03
2022-09-20T19:21:22.311Z,2.50
2022-09-20T19:24:03.143Z,3.10
2022-09-20T19:26:37.873Z,2.00
2022-09-20T19:29:11.186Z,2.60
2022-09-20T19:31:38.882Z,2.20
2022-09-20T19:34:13.761Z,4.00
2022-09-20T19:36:45.881Z,3.30
2022-09-20T19:39:15.603Z,4.20
2022-09-20T19:41:49.649Z,3.00
2022-09-20T19:44:24.174Z,3.07
2022-09-20T19:47:01.648Z,3.87
2022-09-20T19:49:31.714Z,3.47
2022-09-20T19:51:59.735Z,4.17
2022-09-20T19:54:27.447Z,4.40
2022-09-20T19:56:57.662Z,3.80
2022-09-20T19:59:25.928Z,4.37
2022-09-20T20:01:53.772Z,3.77
2022-09-20T20:04:21.876Z,4.07
2022-09-20T20:06:55.613Z,7.33
2022-09-20T20:09:27.526Z,10.07
2022-09-20T20:12:01.148Z,6.63
2022-09-20T20:14:32.465Z,6.97
2022-09-20T20:17:03.626Z,6.60
2022-09-20T20:19:36.266Z,6.67
2022-09-20T20:22:06.516Z,6.27
2022-09-20T20:24:36.900Z,6.57
2022-09-20T20:27:05.778Z,7.17
2022-09-20T20:29:33.237Z,8.67
2022-09-20T20:32:00.686Z,6.40
2022-09-20T20:34:28.135Z,6.50
2022-09-20T20:37:00.887Z,5.63
2022-09-20T20:39:28.699Z,7.13
2022-09-20T20:42:01.794Z,7.67
2022-09-20T20:44:31.008Z,10.20
2022-09-20T20:46:58.486Z,9.47
2022-09-20T20:49:26.142Z,10.20
2022-09-20T20:51:53.805Z,9.73
2022-09-20T20:54:21.875Z,8.90
2022-09-20T20:56:49.268Z,9.90
2022-09-20T20:59:18.126Z,8.50
2022-09-20T21:01:46.918Z,7.70
2022-09-20T21:04:15.197Z,8.13
2022-09-20T21:06:42.838Z,8.17
2022-09-20T21:09:11.383Z,7.07
2022-09-20T21:11:40.202Z,9.30
2022-09-20T21:14:07.979Z,8.70
2022-09-20T21:16:36.223Z,8.50
2022-09-20T21:19:06.380Z,7.80
2022-09-20T21:21:34.958Z,7.97
2022-09-20T21:24:05.045Z,7.67
2022-09-20T21:26:34.429Z,8.47
2022-09-20T21:29:02.586Z,6.53
2022-09-20T21:31:30.595Z,6.97
2022-09-20T21:33:58.075Z,7.03
2022-09-20T21:36:27.867Z,7.83
2022-09-20T21:38:55.691Z,7.40
2022-09-20T21:41:23.819Z,7.40
2022-09-20T21:43:53.056Z,7.50
2022-09-20T21:46:21.519Z,8.27
2022-09-20T21:48:49.870Z,7.73
2022-09-20T21:51:18.171Z,7.03
2022-09-20T21:53:47.273Z,8.83
2022-09-20T21:56:15.459Z,6.47
2022-09-20T21:58:42.963Z,6.87
2022-09-20T22:01:11.947Z,7.13
2022-09-20T22:03:40.036Z,8.27
2022-09-20T22:06:08.717Z,7.77
2022-09-20T22:08:37.390Z,9.17
2022-09-20T22:11:12.213Z,6.33
2022-09-20T22:13:42.662Z,6.80
2022-09-20T22:16:11.666Z,7.50
2022-09-20T22:18:40.129Z,6.83
2022-09-20T22:21:08.917Z,7.40
2022-09-20T22:23:36.645Z,7.60
2022-09-20T22:26:04.947Z,7.47
2022-09-20T22:28:33.791Z,5.87
2022-09-20T22:31:05.986Z,8.60
2022-09-20T22:33:33.624Z,6.00
2022-09-20T22:36:01.875Z,5.97
2022-09-20T22:38:30.145Z,5.60
2022-09-20T22:40:58.142Z,5.30
2022-09-20T22:43:25.886Z,5.87
2022-09-20T22:45:54.857Z,5.47
2022-09-20T22:48:22.288Z,5.23
2022-09-20T22:50:49.726Z,4.90
2022-09-20T22:53:17.182Z,5.40
2022-09-20T22:55:44.579Z,4.87
2022-09-20T22:58:11.991Z,4.93
2022-09-20T23:00:39.395Z,4.83
2022-09-20T23:03:08.138Z,3.60
2022-09-20T23:05:35.515Z,3.27
2022-09-20T23:08:02.972Z,4.10
2022-09-20T23:10:30.355Z,2.97
2022-09-20T23:12:57.774Z,3.47
2022-09-20T23:15:25.203Z,6.50
2022-09-20T23:17:52.602Z,4.47
2022-09-20T23:20:21.359Z,3.53
2022-09-20T23:22:48.790Z,3.57
2022-09-20T23:25:16.286Z,3.83
2022-09-20T23:27:43.669Z,3.43
2022-09-20T23:30:11.462Z,3.77
2022-09-20T23:32:38.928Z,5.10
2022-09-20T23:35:06.831Z,5.17
2022-09-20T23:37:35.582Z,3.70
2022-09-20T23:40:03.303Z,3.33
2022-09-20T23:42:30.736Z,3.17
2022-09-20T23:44:58.123Z,3.73
2022-09-20T23:47:25.511Z,6.27
2022-09-20T23:49:52.967Z,3.60
2022-09-20T23:52:20.354Z,3.83
2022-09-20T23:54:49.146Z,3.03
2022-09-20T23:57:17.144Z,3.17
2022-09-20T23:59:44.598Z,3.07
